Time;durP1;ratioP1;P1;durP2;ratioP2;P2;SDS_P1;SDS_P2;PMS_P1;PMS_P2;Temp;Humidity;BMP_temperature;BMP_pressure;BME280_temperature;BME280_humidity;BME280_pressure;Samples;Min_cycle;Max_cycle;Signal;HPM_P1;HPM_P2
2022/03/12 00:02:08;;;;;;;7.50;5.28;;;;;;;4.16;21.05;95515.50;4999606;28;20113;-66
2022/03/12 00:04:33;;;;;;;13.35;8.27;;;;;;;4.12;22.92;95522.00;4999900;28;20154;-66
2022/03/12 00:06:59;;;;;;;10.30;6.60;;;;;;;4.32;21.34;95514.91;5000460;28;20074;-66
2022/03/12 00:09:24;;;;;;;11.07;6.10;;;;;;;4.27;23.29;95517.13;4999584;28;20611;-66
2022/03/12 00:11:51;;;;;;;10.05;5.20;;;;;;;4.31;20.76;95512.41;5000302;28;20078;-66
2022/03/12 00:14:19;;;;;;;7.95;5.38;;;;;;;4.12;21.59;95516.72;4998893;28;20578;-66
2022/03/12 00:16:44;;;;;;;9.73;5.40;;;;;;;4.15;21.58;95511.19;5000164;28;20117;-66
2022/03/12 00:19:10;;;;;;;12.30;5.53;;;;;;;4.18;20.72;95505.63;5000105;28;20472;-66
2022/03/12 00:21:36;;;;;;;11.85;5.90;;;;;;;3.94;21.42;95509.53;4999667;28;20193;-66
2022/03/12 00:24:03;;;;;;;8.65;5.35;;;;;;;4.29;20.38;95517.81;5000172;28;20559;-67
2022/03/12 00:26:29;;;;;;;11.13;6.53;;;;;;;4.14;21.00;95514.78;5001958;28;20191;-66
2022/03/12 00:28:54;;;;;;;9.43;5.40;;;;;;;4.28;20.89;95521.44;5000042;28;20121;-66
2022/03/12 00:31:20;;;;;;;11.40;5.40;;;;;;;4.26;20.51;95514.66;5001987;28;20070;-66
2022/03/12 00:33:45;;;;;;;8.23;5.10;;;;;;;4.16;21.27;95519.94;5003488;28;20384;-67
2022/03/12 00:36:12;;;;;;;9.63;5.55;;;;;;;4.19;20.92;95509.91;5006034;28;20098;-66
2022/03/12 00:38:38;;;;;;;8.88;5.30;;;;;;;4.25;20.19;95513.00;5019285;28;20530;-67
2022/03/12 00:41:05;;;;;;;11.68;7.78;;;;;;;3.74;23.19;95521.03;5006735;28;20352;-66
2022/03/12 00:43:30;;;;;;;10.88;7.15;;;;;;;3.89;21.41;95522.28;5003546;28;20071;-63
2022/03/12 00:45:56;;;;;;;10.35;5.60;;;;;;;4.15;20.40;95516.44;5003194;28;20125;-63
2022/03/12 00:48:21;;;;;;;9.30;5.43;;;;;;;4.31;20.58;95509.78;5003135;28;20475;-66
2022/03/12 00:50:47;;;;;;;8.38;5.20;;;;;;;4.26;20.45;95504.09;5003216;28;20074;-66
2022/03/12 00:53:12;;;;;;;10.85;5.80;;;;;;;4.12;21.22;95505.38;5004558;28;20980;-65
2022/03/12 00:55:37;;;;;;;7.30;5.20;;;;;;;4.22;20.34;95506.16;5009100;28;20138;-66
2022/03/12 00:58:03;;;;;;;10.80;5.10;;;;;;;4.29;20.90;95506.47;5000776;28;20102;-66
2022/03/12 01:00:28;;;;;;;11.15;5.40;;;;;;;4.19;20.80;95502.00;5003118;28;20641;-66
2022/03/12 01:02:54;;;;;;;9.30;6.38;;;;;;;3.99;21.00;95500.38;5003152;28;20165;-66
2022/03/12 01:05:22;;;;;;;7.97;5.00;;;;;;;4.03;20.61;95502.59;5000322;28;20685;-66
2022/03/12 01:07:49;;;;;;;8.93;6.05;;;;;;;3.77;24.13;95500.50;5001394;28;20165;-66
2022/03/12 01:10:14;;;;;;;8.13;5.15;;;;;;;4.09;20.81;95503.84;5000875;28;20101;-66
2022/03/12 01:12:40;;;;;;;9.90;5.40;;;;;;;4.17;21.23;95498.72;5003035;28;20105;-66
2022/03/12 01:15:07;;;;;;;9.00;5.20;;;;;;;4.22;20.56;95503.53;5002796;28;20535;-67
2022/03/12 01:17:33;;;;;;;9.20;5.05;;;;;;;4.08;20.66;95504.78;5000649;28;20129;-66
2022/03/12 01:20:00;;;;;;;9.88;6.25;;;;;;;3.67;24.56;95495.25;5004292;28;20073;-67
2022/03/12 01:22:27;;;;;;;10.48;4.95;;;;;;;3.98;20.66;95504.00;5019653;28;20171;-66
2022/03/12 01:24:52;;;;;;;10.77;5.40;;;;;;;4.05;20.55;95498.00;5008574;28;20134;-66
2022/03/12 01:27:18;;;;;;;9.50;6.45;;;;;;;3.59;21.48;95502.16;5001126;28;20082;-67
2022/03/12 01:29:43;;;;;;;9.02;6.03;;;;;;;3.50;21.57;95506.47;5036426;28;20105;-66
2022/03/12 01:32:09;;;;;;;9.52;5.20;;;;;;;4.07;20.82;95505.78;5043215;28;20474;-67
2022/03/12 01:34:34;;;;;;;11.60;5.32;;;;;;;4.07;20.99;95506.63;5031640;28;20462;-66
2022/03/12 01:37:00;;;;;;;8.05;5.55;;;;;;;3.88;20.82;95512.72;5029197;28;20469;-67
2022/03/12 01:39:25;;;;;;;8.10;4.70;;;;;;;4.05;20.32;95505.91;5015849;28;20088;-67
2022/03/12 01:41:52;;;;;;;8.82;5.13;;;;;;;4.14;19.95;95503.41;4987519;28;20168;-67
2022/03/12 01:44:17;;;;;;;8.45;5.10;;;;;;;4.12;19.75;95506.19;4997009;28;20524;-67
2022/03/12 01:46:44;;;;;;;8.13;4.93;;;;;;;4.02;20.06;95497.47;5004201;28;20090;-67
2022/03/12 01:49:14;;;;;;;8.30;4.93;;;;;;;4.12;20.15;95497.47;5001250;28;20107;-67
2022/03/12 01:51:40;;;;;;;8.73;4.85;;;;;;;4.02;19.90;95493.00;5003563;28;20082;-67
2022/03/12 01:54:06;;;;;;;8.48;5.45;;;;;;;4.01;20.84;95495.81;5012965;28;20129;-66
2022/03/12 01:56:34;;;;;;;7.32;4.85;;;;;;;4.09;20.10;95509.13;5014491;28;20139;-67
2022/03/12 01:58:59;;;;;;;9.43;5.53;;;;;;;3.36;21.64;95513.72;5030088;28;20086;-67
2022/03/12 02:01:26;;;;;;;8.98;5.22;;;;;;;3.79;20.79;95513.53;5022629;28;20097;-66
2022/03/12 02:03:52;;;;;;;8.50;4.82;;;;;;;3.94;20.18;95514.81;5009190;28;20085;-67
2022/03/12 02:06:21;;;;;;;10.10;5.10;;;;;;;4.07;20.08;95514.53;4994407;28;20567;-67
2022/03/12 02:08:59;;;;;;;9.07;5.03;;;;;;;4.15;19.84;95508.53;4991398;28;20467;-67
2022/03/12 02:11:28;;;;;;;8.70;5.63;;;;;;;3.72;20.79;95512.44;5000625;28;20179;-67
2022/03/12 02:14:00;;;;;;;;;;;;;;;3.87;20.74;95513.69;5000388;28;20146;-67
2022/03/12 02:16:25;;;;;;;11.30;5.45;;;;;;;3.89;20.32;95519.66;4990430;28;20477;-67
2022/03/12 02:18:51;;;;;;;7.40;4.85;;;;;;;3.96;21.32;95519.09;4994066;28;20544;-67
2022/03/12 02:21:28;;;;;;;8.55;5.25;;;;;;;4.03;20.89;95514.94;5002956;28;20129;-66
2022/03/12 02:23:53;;;;;;;9.48;5.43;;;;;;;3.94;20.68;95520.06;4999302;28;20078;-66
2022/03/12 02:26:19;;;;;;;16.92;5.00;;;;;;;3.83;20.75;95516.72;5001902;28;20496;-67
2022/03/12 02:28:45;;;;;;;7.38;5.05;;;;;;;4.10;20.23;95516.03;5000699;28;20110;-67
2022/03/12 02:31:13;;;;;;;6.88;4.90;;;;;;;4.04;19.87;95516.59;4992531;28;20327;-67
2022/03/12 02:33:38;;;;;;;7.28;4.60;;;;;;;4.10;20.71;95523.94;4987087;28;20808;-67
2022/03/12 02:36:06;;;;;;;9.25;5.10;;;;;;;4.34;19.62;95522.69;4996483;28;20419;-67
2022/03/12 02:38:32;;;;;;;8.75;5.20;;;;;;;4.25;19.92;95519.06;5011404;28;20586;-66
2022/03/12 02:41:10;;;;;;;8.93;5.07;;;;;;;4.30;20.37;95521.28;5015751;28;20090;-67
2022/03/12 02:43:37;;;;;;;8.68;4.85;;;;;;;4.38;19.36;95523.22;5018056;28;20097;-67
2022/03/12 02:46:02;;;;;;;9.70;4.93;;;;;;;4.42;19.85;95519.34;5014090;28;20145;-67
2022/03/12 02:48:28;;;;;;;9.77;4.65;;;;;;;4.33;19.63;95516.56;5012492;28;20447;-67
2022/03/12 02:50:53;;;;;;;8.05;5.05;;;;;;;4.49;19.70;95530.16;5019287;28;20529;-66
2022/03/12 02:53:19;;;;;;;8.30;4.82;;;;;;;4.50;19.39;95529.16;5022138;28;20125;-66
2022/03/12 02:55:45;;;;;;;8.38;5.13;;;;;;;4.53;19.53;95534.16;5019675;28;20515;-67
2022/03/12 02:58:10;;;;;;;9.50;5.40;;;;;;;4.52;19.20;95535.16;5022080;28;20525;-66
2022/03/12 03:00:37;;;;;;;8.30;5.05;;;;;;;4.56;19.23;95531.25;5016816;28;20105;-67
2022/03/12 03:03:03;;;;;;;9.25;5.00;;;;;;;4.66;19.55;95532.03;5014016;28;20454;-67
2022/03/12 03:05:36;;;;;;;7.07;4.78;;;;;;;4.66;19.31;95544.41;5007148;28;20196;-67
2022/03/12 03:08:06;;;;;;;8.85;5.40;;;;;;;4.58;20.05;95550.38;5017161;28;20080;-67
2022/03/12 03:10:39;;;;;;;10.70;5.10;;;;;;;4.37;19.94;95561.94;5020856;28;20132;-67
2022/03/12 03:13:28;;;;;;;10.90;5.85;;;;;;;3.89;25.67;95559.16;5014354;28;20094;-67
2022/03/12 03:16:00;;;;;;;7.03;5.05;;;;;;;4.41;20.08;95559.84;5003887;28;20581;-68
2022/03/12 03:18:29;;;;;;;9.18;5.00;;;;;;;4.50;19.82;95559.00;5012426;28;20132;-67
2022/03/12 03:20:55;;;;;;;8.15;4.72;;;;;;;4.58;19.80;95559.13;5018510;28;20474;-68
2022/03/12 03:23:21;;;;;;;10.00;6.05;;;;;;;4.35;20.66;95560.41;5013548;28;20109;-67
2022/03/12 03:25:47;;;;;;;9.73;5.35;;;;;;;4.38;19.63;95554.84;5010062;28;20568;-67
2022/03/12 03:28:13;;;;;;;8.18;5.22;;;;;;;4.48;19.37;95568.00;5013201;28;20121;-67
2022/03/12 03:30:39;;;;;;;8.20;5.55;;;;;;;4.47;19.68;95559.28;5007704;28;20602;-67
2022/03/12 03:33:15;;;;;;;7.75;5.05;;;;;;;4.74;18.80;95564.78;5018945;28;20110;-67
2022/03/12 03:35:40;;;;;;;7.25;5.22;;;;;;;4.67;19.72;95565.38;5012929;28;20501;-68
2022/03/12 03:38:07;;;;;;;7.50;5.00;;;;;;;4.65;20.22;95559.41;5018657;28;20109;-67
2022/03/12 03:40:32;;;;;;;7.88;5.00;;;;;;;4.70;19.84;95565.06;5013313;28;20112;-67
2022/03/12 03:42:57;;;;;;;8.63;5.25;;;;;;;4.68;19.82;95563.53;5021675;28;20442;-67
2022/03/12 03:45:27;;;;;;;10.23;5.63;;;;;;;4.47;20.40;95569.84;5012644;28;20189;-67
2022/03/12 03:47:53;;;;;;;8.77;5.57;;;;;;;4.22;22.10;95571.25;5010262;28;20503;-67
2022/03/12 03:50:20;;;;;;;7.85;4.80;;;;;;;4.31;20.10;95570.41;5019577;28;20082;-68
2022/03/12 03:52:46;;;;;;;8.13;5.00;;;;;;;4.45;19.63;95574.41;5015104;28;20141;-67
2022/03/12 03:55:11;;;;;;;8.40;5.38;;;;;;;4.38;19.87;95578.56;5014469;28;20089;-67
2022/03/12 03:57:37;;;;;;;8.98;5.15;;;;;;;4.33;19.90;95592.19;5016374;28;20106;-67
2022/03/12 04:00:03;;;;;;;7.80;5.32;;;;;;;4.01;20.07;95586.19;5013799;28;20102;-67
2022/03/12 04:02:29;;;;;;;9.98;5.05;;;;;;;4.23;20.48;95596.63;5017858;28;20078;-67
2022/03/12 04:04:54;;;;;;;8.25;4.90;;;;;;;4.30;20.05;95595.94;5011574;28;20582;-67
2022/03/12 04:07:20;;;;;;;9.20;5.20;;;;;;;4.42;19.93;95599.25;5022666;28;20085;-67
2022/03/12 04:09:45;;;;;;;7.70;5.25;;;;;;;4.38;20.82;95589.13;5023766;28;20114;-67
2022/03/12 04:12:10;;;;;;;9.75;5.13;;;;;;;4.37;20.03;95590.94;5024750;28;20164;-67
2022/03/12 04:14:36;;;;;;;8.20;5.10;;;;;;;4.33;20.34;95590.38;5011882;28;20175;-67
2022/03/12 04:17:04;;;;;;;7.60;5.00;;;;;;;4.31;20.70;95599.38;5023167;28;20635;-67
2022/03/12 04:19:30;;;;;;;9.20;5.28;;;;;;;4.47;20.55;95587.44;5022922;28;20112;-67
2022/03/12 04:21:57;;;;;;;7.18;4.82;;;;;;;4.49;20.52;95591.59;5016188;28;20479;-67
2022/03/12 04:24:24;;;;;;;8.18;5.30;;;;;;;4.58;19.63;95595.22;5024833;28;20100;-67
2022/03/12 04:26:50;;;;;;;7.30;5.47;;;;;;;4.59;19.82;95599.50;5022324;28;20516;-67
2022/03/12 04:29:16;;;;;;;9.82;5.43;;;;;;;4.57;20.45;95602.31;5011675;28;20116;-67
2022/03/12 04:31:42;;;;;;;11.90;6.03;;;;;;;4.51;20.24;95597.59;5021331;28;20078;-67
2022/03/12 04:34:07;;;;;;;12.18;7.50;;;;;;;4.23;20.97;95604.53;5014801;28;20112;-67
2022/03/12 04:36:34;;;;;;;8.27;5.63;;;;;;;4.37;21.05;95609.38;5023153;28;20221;-67
2022/03/12 04:39:00;;;;;;;10.77;5.70;;;;;;;4.45;21.09;95603.41;5015855;28;20090;-67
2022/03/12 04:41:29;;;;;;;9.90;5.85;;;;;;;4.43;20.88;95605.38;5015731;28;20125;-67
2022/03/12 04:43:55;;;;;;;9.38;5.93;;;;;;;4.28;20.51;95607.56;5018621;28;20204;-67
2022/03/12 04:46:20;;;;;;;8.38;5.38;;;;;;;4.30;21.27;95610.91;5017299;28;20085;-67
2022/03/12 04:48:45;;;;;;;17.00;8.13;;;;;;;3.76;23.63;95603.34;5020285;28;20101;-67
2022/03/12 04:51:11;;;;;;;8.05;5.20;;;;;;;3.81;21.70;95606.41;5023869;28;20085;-67
2022/03/12 04:53:38;;;;;;;13.05;6.15;;;;;;;3.77;21.49;95616.38;5024310;28;20102;-67
2022/03/12 04:56:04;;;;;;;14.80;10.30;;;;;;;3.70;22.94;95612.63;5023426;28;20082;-67
2022/03/12 04:58:29;;;;;;;18.95;11.00;;;;;;;3.08;24.61;95624.00;5024154;28;20790;-67
2022/03/12 05:00:55;;;;;;;11.25;7.28;;;;;;;3.61;22.14;95627.44;5019729;28;20423;-67
2022/03/12 05:03:22;;;;;;;8.00;5.32;;;;;;;3.63;22.07;95628.13;5006545;28;20086;-67
2022/03/12 05:05:49;;;;;;;10.55;5.38;;;;;;;3.78;22.58;95627.78;5022200;28;20108;-67
2022/03/12 05:08:16;;;;;;;15.77;9.95;;;;;;;3.50;23.46;95628.38;5020609;28;20101;-67
2022/03/12 05:10:42;;;;;;;11.25;5.40;;;;;;;3.97;21.78;95632.22;5018702;28;20673;-66
2022/03/12 05:13:10;;;;;;;13.27;5.65;;;;;;;4.13;21.73;95634.34;5010879;28;20483;-66
2022/03/12 05:15:38;;;;;;;7.70;5.10;;;;;;;4.23;21.74;95630.88;5016421;28;20576;-66
2022/03/12 05:18:07;;;;;;;10.15;7.00;;;;;;;4.18;22.11;95629.50;5018455;28;20129;-66
2022/03/12 05:20:36;;;;;;;9.30;5.40;;;;;;;4.22;21.74;95629.22;5023757;28;20117;-66
2022/03/12 05:23:02;;;;;;;;;;;;;;;4.12;21.60;95630.03;5023301;28;20093;-67
2022/03/12 05:25:29;;;;;;;8.02;4.97;;;;;;;4.15;21.46;95632.41;5023356;28;20374;-67
2022/03/12 05:27:54;;;;;;;8.82;5.82;;;;;;;4.03;22.26;95636.13;5023655;28;20105;-67
2022/03/12 05:30:20;;;;;;;13.38;8.82;;;;;;;3.70;24.60;95649.50;5022576;28;20402;-67
2022/03/12 05:32:46;;;;;;;10.32;5.85;;;;;;;3.76;23.37;95651.59;5022113;28;20159;-67
2022/03/12 05:35:12;;;;;;;11.07;6.85;;;;;;;3.78;22.90;95652.28;5023589;28;20090;-67
2022/03/12 05:37:38;;;;;;;10.05;6.10;;;;;;;3.66;23.47;95658.63;5022491;28;20574;-67
2022/03/12 05:40:07;;;;;;;13.93;8.80;;;;;;;3.54;24.99;95650.00;5016738;28;20171;-67
2022/03/12 05:42:34;;;;;;;12.98;7.63;;;;;;;3.56;24.23;95650.69;5023255;28;20245;-67
2022/03/12 05:45:01;;;;;;;12.38;6.20;;;;;;;3.57;24.09;95647.09;5023231;28;20106;-67
2022/03/12 05:47:26;;;;;;;8.30;5.35;;;;;;;3.55;23.57;95652.47;5023278;28;20088;-67
2022/03/12 05:49:53;;;;;;;10.18;5.25;;;;;;;3.47;22.93;95651.50;5022066;28;20102;-67
2022/03/12 05:52:18;;;;;;;12.52;7.55;;;;;;;3.37;23.39;95652.25;5022821;28;20548;-67
2022/03/12 05:54:46;;;;;;;11.55;8.00;;;;;;;3.02;24.13;95650.81;5020672;28;20094;-67
2022/03/12 05:57:11;;;;;;;10.95;5.65;;;;;;;3.11;24.17;95651.84;5009775;28;20117;-67
2022/03/12 05:59:37;;;;;;;10.98;6.32;;;;;;;2.90;24.36;95650.88;5022008;28;20077;-67
2022/03/12 06:02:02;;;;;;;12.50;7.18;;;;;;;2.86;24.93;95654.75;5022801;28;20109;-67
2022/03/12 06:04:28;;;;;;;10.70;5.97;;;;;;;2.71;24.90;95653.41;5020697;28;20102;-67
2022/03/12 06:06:54;;;;;;;9.30;5.30;;;;;;;2.70;24.87;95659.63;5023090;28;20235;-67
2022/03/12 06:09:19;;;;;;;8.18;5.93;;;;;;;2.67;24.86;95649.34;5012211;28;20185;-68
2022/03/12 06:11:45;;;;;;;9.40;5.63;;;;;;;2.52;24.78;95653.13;5014742;28;20559;-67
2022/03/12 06:14:15;;;;;;;11.80;7.63;;;;;;;2.40;25.14;95664.66;5022706;28;20148;-67
2022/03/12 06:16:42;;;;;;;9.68;6.10;;;;;;;2.41;24.95;95665.50;5021583;28;20193;-68
2022/03/12 06:19:08;;;;;;;8.07;5.65;;;;;;;2.43;24.82;95663.56;5021951;28;20100;-67
2022/03/12 06:21:34;;;;;;;11.60;6.20;;;;;;;2.39;24.90;95660.38;5021401;28;20181;-67
2022/03/12 06:24:00;;;;;;;7.78;5.38;;;;;;;2.57;24.78;95660.66;5021608;28;20474;-67
2022/03/12 06:26:27;;;;;;;9.32;5.68;;;;;;;2.67;24.75;95654.63;5022544;28;20180;-67
2022/03/12 06:28:52;;;;;;;9.30;5.95;;;;;;;2.74;24.49;95661.03;5022037;28;20530;-67
2022/03/12 06:31:18;;;;;;;11.68;5.72;;;;;;;2.59;24.80;95656.06;5022022;28;20089;-67
2022/03/12 06:33:44;;;;;;;8.90;5.93;;;;;;;2.71;24.62;95661.28;5021903;28;20344;-62
2022/03/12 06:36:12;;;;;;;10.95;6.05;;;;;;;2.96;24.33;95664.50;5021506;28;20183;-63
2022/03/12 06:38:38;;;;;;;9.90;5.47;;;;;;;3.19;24.18;95659.09;5019093;28;20161;-62
2022/03/12 06:41:04;;;;;;;11.43;5.78;;;;;;;3.22;24.26;95658.81;5019611;28;20136;-63
2022/03/12 06:43:30;;;;;;;9.40;5.60;;;;;;;3.48;24.15;95656.63;5021904;28;20179;-62
2022/03/12 06:45:59;;;;;;;9.90;6.07;;;;;;;3.66;23.73;95659.47;5021983;28;20642;-66
2022/03/12 06:48:25;;;;;;;9.05;5.70;;;;;;;3.88;23.48;95665.47;5016502;28;20424;-66
2022/03/12 06:50:50;;;;;;;11.68;5.70;;;;;;;3.94;23.51;95654.41;5010842;28;20161;-66
2022/03/12 06:53:16;;;;;;;10.40;6.03;;;;;;;3.68;24.60;95659.34;5020638;28;20102;-66
2022/03/12 06:55:42;;;;;;;9.02;5.60;;;;;;;3.93;23.46;95652.75;5021241;28;20147;-66
2022/03/12 06:58:07;;;;;;;9.65;5.95;;;;;;;3.98;24.02;95654.97;5021021;28;20605;-66
2022/03/12 07:00:32;;;;;;;9.30;6.00;;;;;;;4.24;23.77;95661.53;5013396;28;20102;-66
2022/03/12 07:02:58;;;;;;;10.85;6.60;;;;;;;4.36;23.01;95656.97;5002508;28;20101;-66
2022/03/12 07:05:24;;;;;;;11.10;5.63;;;;;;;4.73;23.12;95658.91;5019765;28;20114;-66
2022/03/12 07:07:49;;;;;;;8.18;5.68;;;;;;;5.05;23.10;95651.63;5008867;28;20168;-66
2022/03/12 07:10:15;;;;;;;8.27;5.70;;;;;;;5.26;22.89;95651.47;5013930;28;20084;-66
2022/03/12 07:12:44;;;;;;;9.40;5.75;;;;;;;5.54;22.50;95656.00;5015926;28;20121;-66
2022/03/12 07:15:11;;;;;;;10.82;6.18;;;;;;;5.39;23.05;95656.44;5018549;28;20085;-66
2022/03/12 07:17:36;;;;;;;12.93;6.18;;;;;;;5.52;22.97;95652.66;5021611;28;20549;-66
2022/03/12 07:20:03;;;;;;;8.95;5.93;;;;;;;5.85;23.60;95663.63;5013172;28;20081;-66
2022/03/12 07:22:29;;;;;;;7.20;5.22;;;;;;;6.27;23.22;95661.41;5022308;28;20090;-67
2022/03/12 07:24:55;;;;;;;12.93;5.90;;;;;;;6.45;22.48;95656.97;5013739;28;20171;-66
2022/03/12 07:27:21;;;;;;;9.32;5.90;;;;;;;6.60;22.74;95665.25;5004662;28;20498;-66
2022/03/12 07:29:46;;;;;;;7.78;5.47;;;;;;;6.91;22.35;95665.81;5019004;28;20094;-66
2022/03/12 07:32:12;;;;;;;11.55;6.90;;;;;;;6.33;25.05;95661.66;5018908;28;20109;-66
2022/03/12 07:34:37;;;;;;;11.02;5.70;;;;;;;7.01;22.47;95658.63;5020759;28;20092;-66
2022/03/12 07:37:03;;;;;;;11.48;5.88;;;;;;;7.05;22.40;95662.63;5020543;28;20109;-66
2022/03/12 07:39:29;;;;;;;9.88;6.13;;;;;;;7.34;21.79;95660.69;5021456;28;20082;-66
2022/03/12 07:41:54;;;;;;;7.95;5.03;;;;;;;7.47;21.78;95650.47;5017922;28;20109;-67
2022/03/12 07:44:20;;;;;;;10.32;5.80;;;;;;;7.60;21.48;95643.91;5010388;28;20097;-67
2022/03/12 07:46:45;;;;;;;9.90;7.07;;;;;;;7.77;21.61;95645.69;5013996;28;20169;-66
2022/03/12 07:49:11;;;;;;;8.43;5.47;;;;;;;7.95;21.11;95650.03;5012109;28;20187;-67
2022/03/12 07:51:37;;;;;;;11.90;8.57;;;;;;;7.64;22.34;95651.38;5013000;28;20121;-67
2022/03/12 07:54:06;;;;;;;8.77;5.60;;;;;;;7.73;21.31;95662.84;4997564;28;20261;-66
2022/03/12 07:56:34;;;;;;;12.57;5.65;;;;;;;7.84;21.08;95661.78;5001699;28;20102;-66
2022/03/12 07:58:59;;;;;;;11.13;7.20;;;;;;;7.31;21.87;95674.22;5001807;28;20085;-67
2022/03/12 08:01:25;;;;;;;9.95;6.90;;;;;;;7.48;21.38;95675.16;5001115;28;20103;-66
2022/03/12 08:03:50;;;;;;;8.02;5.57;;;;;;;7.64;20.92;95685.84;5001675;28;20070;-67
2022/03/12 08:06:16;;;;;;;9.68;5.30;;;;;;;7.96;20.82;95688.81;5020360;28;20611;-66
2022/03/12 08:08:42;;;;;;;9.27;5.47;;;;;;;7.59;21.55;95690.78;5011693;28;20729;-67
2022/03/12 08:11:25;;;;;;;7.78;5.45;;;;;;;7.86;21.43;95683.63;5021121;28;20078;-67
2022/03/12 08:13:53;;;;;;;13.90;8.45;;;;;;;7.79;21.95;95695.88;5026812;28;20101;-67
2022/03/12 08:16:19;;;;;;;8.25;5.20;;;;;;;8.10;21.18;95692.69;5032190;28;20098;-68
2022/03/12 08:18:44;;;;;;;11.27;7.03;;;;;;;8.22;21.07;95695.88;4990533;28;20090;-67
2022/03/12 08:21:11;;;;;;;18.98;13.85;;;;;;;7.49;24.85;95693.53;4996837;28;20493;-67
2022/03/12 08:23:36;;;;;;;9.60;5.75;;;;;;;7.89;22.08;95685.97;5006465;28;20078;-67
2022/03/12 08:26:02;;;;;;;8.75;5.53;;;;;;;8.21;20.96;95694.22;5001046;28;20122;-67
2022/03/12 08:28:28;;;;;;;8.07;5.22;;;;;;;8.39;20.87;95693.25;5005517;28;20097;-67
2022/03/12 08:30:53;;;;;;;8.77;5.47;;;;;;;8.62;20.45;95692.63;5020291;28;20176;-67
2022/03/12 08:33:20;;;;;;;7.47;5.43;;;;;;;8.75;20.73;95692.16;5020668;28;20103;-67
2022/03/12 08:35:48;;;;;;;9.35;6.00;;;;;;;8.76;21.14;95689.34;5037632;28;20184;-67
2022/03/12 08:38:14;;;;;;;;;;;;;;;8.87;20.75;95692.69;5028344;28;20574;-67
2022/03/12 08:40:39;;;;;;;9.27;5.47;;;;;;;9.03;20.82;95698.00;5035082;28;20014;-67
2022/03/12 08:43:05;;;;;;;8.25;5.53;;;;;;;9.14;20.51;95690.69;5024702;28;20952;-67
2022/03/12 08:45:31;;;;;;;7.80;5.63;;;;;;;9.30;20.27;95695.16;4999036;28;20112;-68
2022/03/12 08:47:56;;;;;;;9.00;5.93;;;;;;;9.00;21.39;95702.81;4981051;28;20494;-67
2022/03/12 08:50:23;;;;;;;8.45;6.00;;;;;;;9.28;21.61;95702.50;4992726;28;20083;-67
2022/03/12 08:52:49;;;;;;;12.15;8.48;;;;;;;9.32;21.94;95709.94;5003621;28;20188;-68
2022/03/12 08:55:14;;;;;;;9.60;6.25;;;;;;;9.67;22.06;95711.53;5005186;28;20133;-68
2022/03/12 08:57:40;;;;;;;10.13;6.60;;;;;;;9.19;22.73;95713.09;5004683;28;20105;-68
2022/03/12 09:00:06;;;;;;;12.00;8.20;;;;;;;9.23;23.35;95712.78;5005957;28;20108;-67
2022/03/12 09:02:35;;;;;;;9.18;6.57;;;;;;;8.97;23.90;95724.41;5025229;28;20124;-68
2022/03/12 09:05:01;;;;;;;;;;;;;;;9.12;23.75;95724.56;5034937;28;20474;-67
2022/03/12 09:07:26;;;;;;;9.45;6.25;;;;;;;9.55;23.16;95727.00;5031181;28;19972;-67
2022/03/12 09:09:53;;;;;;;19.83;6.47;;;;;;;7.28;25.20;95729.16;5007584;28;20165;-67
2022/03/12 09:12:18;;;;;;;11.73;7.93;;;;;;;8.67;24.32;95728.31;5003961;28;20510;-67
2022/03/12 09:14:44;;;;;;;14.70;9.60;;;;;;;9.26;23.24;95715.94;5003951;28;20830;-67
2022/03/12 09:17:09;;;;;;;12.68;8.85;;;;;;;9.50;23.14;95708.94;5003632;28;20113;-67
2022/03/12 09:19:34;;;;;;;12.52;6.70;;;;;;;9.17;23.33;95716.91;5003618;28;20096;-67
2022/03/12 09:22:02;;;;;;;11.63;7.90;;;;;;;8.92;23.15;95724.88;5003401;28;20101;-68
2022/03/12 09:24:27;;;;;;;9.50;6.93;;;;;;;9.80;22.66;95726.97;5013591;28;20105;-67
2022/03/12 09:26:53;;;;;;;13.05;7.90;;;;;;;8.63;23.41;95720.81;5043325;28;20082;-67
2022/03/12 09:29:18;;;;;;;12.52;7.80;;;;;;;9.39;23.10;95719.91;5042655;28;20101;-68
2022/03/12 09:31:44;;;;;;;18.02;10.32;;;;;;;9.70;23.04;95721.84;5043091;28;20081;-67
2022/03/12 09:34:09;;;;;;;14.98;10.38;;;;;;;9.70;22.60;95732.47;5028371;28;20307;-67
2022/03/12 09:36:36;;;;;;;11.90;8.07;;;;;;;10.52;21.68;95730.53;5002305;28;20105;-67
2022/03/12 09:39:03;;;;;;;10.15;6.90;;;;;;;10.60;21.59;95733.16;5001765;28;20418;-67
2022/03/12 09:41:28;;;;;;;12.65;9.10;;;;;;;10.59;21.79;95736.81;4984481;28;20099;-68
2022/03/12 09:43:54;;;;;;;13.93;7.07;;;;;;;10.91;21.84;95741.28;5002442;28;20065;-67
2022/03/12 09:46:19;;;;;;;11.70;8.45;;;;;;;11.23;21.44;95736.75;5002627;28;20073;-67
2022/03/12 09:48:44;;;;;;;9.60;6.10;;;;;;;10.85;22.14;95746.31;5002382;28;20101;-67
2022/03/12 09:51:10;;;;;;;9.68;6.70;;;;;;;10.94;22.37;95751.56;5002357;28;20084;-67
2022/03/12 09:53:35;;;;;;;10.30;6.80;;;;;;;11.05;21.87;95745.03;4992255;28;20572;-67
2022/03/12 09:56:01;;;;;;;11.35;6.55;;;;;;;11.28;21.24;95741.56;4998344;28;20455;-67
2022/03/12 09:58:27;;;;;;;10.57;6.05;;;;;;;11.26;21.42;95753.19;5028151;28;20083;-67
2022/03/12 10:00:52;;;;;;;8.38;6.45;;;;;;;11.70;21.25;95737.47;5040313;28;20462;-68
2022/03/12 10:03:18;;;;;;;10.80;6.95;;;;;;;11.64;20.71;95738.22;5020016;28;20086;-68
2022/03/12 10:05:43;;;;;;;10.43;7.50;;;;;;;11.93;20.08;95746.44;5042767;28;20106;-67
2022/03/12 10:08:09;;;;;;;8.80;6.40;;;;;;;11.93;20.13;95749.91;5016173;28;20073;-67
2022/03/12 10:10:35;;;;;;;11.00;6.32;;;;;;;11.22;21.31;95754.56;4998450;28;20089;-67
2022/03/12 10:13:01;;;;;;;11.80;7.25;;;;;;;11.84;20.75;95748.34;5003202;28;20571;-67
2022/03/12 10:15:26;;;;;;;8.88;6.85;;;;;;;11.07;21.88;95754.50;5003186;28;20227;-67
2022/03/12 10:17:52;;;;;;;13.48;7.40;;;;;;;11.55;21.43;95757.97;5035930;28;20650;-68
2022/03/12 10:20:18;;;;;;;11.07;6.10;;;;;;;12.01;20.98;95749.00;5029184;28;20111;-67
2022/03/12 10:22:45;;;;;;;9.27;5.97;;;;;;;12.27;20.39;95756.56;4998515;28;20078;-67
2022/03/12 10:25:12;;;;;;;11.98;6.95;;;;;;;10.32;21.69;95754.94;4987859;28;20354;-68
2022/03/12 10:27:37;;;;;;;10.48;7.20;;;;;;;10.80;22.07;95753.16;4995429;28;20099;-67
2022/03/12 10:30:03;;;;;;;11.77;6.90;;;;;;;11.56;21.19;95755.09;4999111;28;20568;-67
2022/03/12 10:32:32;;;;;;;7.93;6.28;;;;;;;12.27;20.56;95742.38;4986575;28;20170;-67
2022/03/12 10:34:59;;;;;;;13.27;6.70;;;;;;;12.69;20.29;95736.53;4992531;28;20079;-68
2022/03/12 10:37:26;;;;;;;10.70;6.53;;;;;;;12.66;19.92;95735.91;4989868;28;20792;-68
2022/03/12 10:40:15;;;;;;;9.10;6.38;;;;;;;12.95;20.39;95730.63;4994553;28;20098;-68
2022/03/12 10:42:50;;;;;;;10.60;6.80;;;;;;;13.46;19.88;95738.72;4984047;28;20072;-68
2022/03/12 10:45:18;;;;;;;11.38;7.78;;;;;;;13.95;19.53;95737.84;4988565;28;20561;-68
2022/03/12 10:47:48;;;;;;;9.38;7.55;;;;;;;14.37;18.94;95744.25;4994159;28;20103;-68
2022/03/12 10:50:36;;;;;;;11.40;7.47;;;;;;;14.34;18.95;95729.41;4988200;28;20091;-68
2022/03/12 10:53:05;;;;;;;9.50;6.88;;;;;;;14.84;18.60;95731.03;4996919;28;20356;-67
2022/03/12 10:55:33;;;;;;;10.90;6.80;;;;;;;11.10;22.42;95743.53;4994618;28;20123;-68
2022/03/12 10:58:12;;;;;;;10.13;6.47;;;;;;;13.79;19.93;95735.44;4998481;28;20088;-68
2022/03/12 11:00:51;;;;;;;10.90;7.35;;;;;;;14.66;18.56;95737.78;4997940;28;20137;-67
2022/03/12 11:03:20;;;;;;;8.65;6.03;;;;;;;15.27;17.74;95739.78;4998647;28;20073;-67
2022/03/12 11:05:46;;;;;;;8.15;6.25;;;;;;;15.58;17.11;95741.06;4997843;28;20115;-68
2022/03/12 11:08:18;;;;;;;9.75;6.38;;;;;;;15.67;17.37;95736.31;4994944;28;20494;-67
2022/03/12 11:10:43;;;;;;;9.55;6.65;;;;;;;15.67;17.18;95739.81;4997011;28;20603;-67
2022/03/12 11:13:10;;;;;;;10.57;7.00;;;;;;;15.96;17.08;95734.19;5011756;28;20077;-67
2022/03/12 11:15:37;;;;;;;10.63;6.90;;;;;;;16.05;16.71;95735.59;5018110;28;20070;-67
2022/03/12 11:18:06;;;;;;;11.40;7.53;;;;;;;16.11;16.70;95734.78;5034011;28;20110;-67
2022/03/12 11:20:35;;;;;;;12.52;7.07;;;;;;;15.85;16.67;95743.72;5024280;28;20094;-67
2022/03/12 11:23:16;;;;;;;7.57;5.90;;;;;;;16.29;16.37;95735.97;4986199;28;20503;-68
2022/03/12 11:25:54;;;;;;;8.65;6.32;;;;;;;16.48;16.62;95739.66;4992884;28;20349;-68
2022/03/12 11:28:20;;;;;;;11.50;8.13;;;;;;;16.35;16.80;95734.34;5006330;28;20598;-68
2022/03/12 11:30:45;;;;;;;10.73;7.40;;;;;;;16.48;17.04;95742.34;5038056;28;20092;-67
2022/03/12 11:33:11;;;;;;;8.38;6.20;;;;;;;16.82;16.59;95727.94;5035898;28;20598;-68
2022/03/12 11:35:37;;;;;;;8.32;6.13;;;;;;;16.92;16.36;95724.78;5001260;28;20077;-67